createdAt,value
2022-09-20T00:02:01.025Z,12.81
2022-09-20T00:04:27.633Z,12.79
2022-09-20T00:06:54.163Z,12.93
2022-09-20T00:09:20.798Z,12.85
2022-09-20T00:11:48.952Z,12.90
2022-09-20T00:14:15.498Z,13.12
2022-09-20T00:16:42.302Z,13.06
2022-09-20T00:19:16.861Z,13.18
2022-09-20T00:21:43.444Z,13.27
2022-09-20T00:24:10.636Z,13.35
2022-09-20T00:26:37.141Z,13.38
2022-09-20T00:29:05.471Z,13.38
2022-09-20T00:31:32.177Z,13.32
2022-09-20T00:33:59.331Z,13.46
2022-09-20T00:36:26.143Z,13.44
2022-09-20T00:38:55.767Z,13.41
2022-09-20T00:41:22.343Z,13.37
2022-09-20T00:43:48.833Z,13.34
2022-09-20T00:46:24.735Z,13.51
2022-09-20T00:48:55.051Z,13.47
2022-09-20T00:51:26.543Z,13.55
2022-09-20T00:53:58.718Z,13.53
2022-09-20T00:56:29.524Z,13.55
2022-09-20T00:59:04.192Z,13.62
2022-09-20T01:01:32.554Z,13.70
2022-09-20T01:04:00.076Z,13.77
2022-09-20T01:06:26.988Z,13.72
2022-09-20T01:08:56.478Z,13.73
2022-09-20T01:11:23.349Z,13.85
2022-09-20T01:13:50.472Z,13.81
2022-09-20T01:16:18.882Z,13.82
2022-09-20T01:18:49.561Z,13.86
2022-09-20T01:21:18.043Z,13.88
2022-09-20T01:23:51.411Z,13.87
2022-09-20T01:26:37.747Z,13.91
2022-09-20T01:29:15.381Z,13.96
2022-09-20T01:31:46.257Z,14.08
2022-09-20T01:34:15.282Z,14.02
2022-09-20T01:36:49.421Z,14.08
2022-09-20T01:39:30.440Z,14.06
2022-09-20T01:41:58.874Z,13.98
2022-09-20T01:44:34.723Z,13.96
2022-09-20T01:47:05.642Z,13.89
2022-09-20T01:49:42.409Z,13.89
2022-09-20T01:52:45.132Z,13.86
2022-09-20T01:55:44.504Z,13.77
2022-09-20T01:58:46.958Z,13.65
2022-09-20T02:01:41.143Z,13.51
2022-09-20T02:04:33.630Z,13.41
2022-09-20T02:07:17.405Z,13.38
2022-09-20T02:10:10.865Z,13.34
2022-09-20T02:12:52.341Z,13.31
2022-09-20T02:15:33.649Z,13.26
2022-09-20T02:18:14.206Z,13.21
2022-09-20T02:20:48.009Z,13.14
2022-09-20T02:23:29.521Z,12.97
2022-09-20T02:26:11.485Z,13.00
2022-09-20T02:28:52.963Z,12.96
2022-09-20T02:31:33.489Z,12.97
2022-09-20T02:34:26.232Z,12.95
2022-09-20T02:37:07.923Z,12.99
2022-09-20T02:39:37.138Z,13.01
2022-09-20T02:42:12.214Z,12.95
2022-09-20T02:45:00.099Z,13.05
2022-09-20T02:47:33.302Z,13.10
2022-09-20T02:50:13.271Z,13.06
2022-09-20T02:52:49.530Z,13.17
2022-09-20T02:55:18.870Z,13.26
2022-09-20T02:57:55.464Z,13.20
2022-09-20T03:00:24.937Z,13.18
2022-09-20T03:03:06.096Z,13.27
2022-09-20T03:05:46.292Z,13.32
2022-09-20T03:08:29.643Z,13.29
2022-09-20T03:11:06.303Z,13.24
2022-09-20T03:13:53.328Z,13.19
2022-09-20T03:16:31.077Z,13.27
2022-09-20T03:19:04.810Z,13.25
2022-09-20T03:21:47.080Z,13.36
2022-09-20T03:24:24.019Z,13.37
2022-09-20T03:26:56.048Z,13.30
2022-09-20T03:29:40.702Z,13.30
2022-09-20T03:32:21.183Z,13.44
2022-09-20T03:34:57.231Z,13.43
2022-09-20T03:37:42.258Z,13.47
2022-09-20T03:40:25.886Z,13.49
2022-09-20T03:42:53.505Z,13.50
2022-09-20T03:45:53.736Z,13.45
2022-09-20T03:48:56.260Z,13.52
2022-09-20T03:51:33.889Z,13.56
2022-09-20T03:54:42.249Z,13.61
2022-09-20T03:57:34.248Z,13.64
2022-09-20T04:00:13.486Z,13.64
2022-09-20T04:02:55.378Z,13.73
2022-09-20T04:05:33.798Z,13.74
2022-09-20T04:08:13.801Z,13.74
2022-09-20T04:10:52.765Z,13.73
2022-09-20T04:13:30.750Z,13.81
2022-09-20T04:16:05.223Z,13.82
2022-09-20T04:18:38.287Z,13.75
2022-09-20T04:21:16.982Z,13.77
2022-09-20T04:23:50.704Z,13.78
2022-09-20T04:26:24.555Z,13.73
2022-09-20T04:28:56.610Z,13.79
2022-09-20T04:31:33.773Z,13.60
2022-09-20T04:34:04.509Z,13.84
2022-09-20T04:36:53.231Z,13.73
2022-09-20T04:39:31.426Z,13.90
2022-09-20T04:42:41.230Z,13.89
2022-09-20T04:45:49.159Z,13.83
2022-09-20T04:48:57.294Z,13.89
2022-09-20T04:51:54.591Z,13.93
2022-09-20T04:54:53.777Z,13.91
2022-09-20T04:57:47.199Z,13.94
2022-09-20T05:00:17.359Z,13.85
2022-09-20T05:03:17.390Z,13.97
2022-09-20T05:06:10.807Z,13.87
2022-09-20T05:09:14.051Z,13.75
2022-09-20T05:12:01.828Z,14.00
2022-09-20T05:15:12.682Z,13.97
2022-09-20T05:17:53.820Z,14.01
2022-09-20T05:20:55.408Z,14.11
2022-09-20T05:26:37.364Z,14.16
2022-09-20T05:32:02.031Z,14.15
2022-09-20T05:34:38.901Z,14.17
2022-09-20T05:37:16.061Z,14.03
2022-09-20T05:39:52.258Z,14.22
2022-09-20T05:42:23.496Z,14.32
2022-09-20T05:45:16.223Z,14.35
2022-09-20T05:47:54.027Z,14.43
2022-09-20T05:50:39.285Z,14.46
2022-09-20T05:53:36.470Z,14.63
2022-09-20T05:56:12.784Z,14.50
2022-09-20T05:58:54.436Z,14.66
2022-09-20T06:01:26.149Z,14.77
2022-09-20T06:04:07.616Z,14.73
2022-09-20T06:06:47.038Z,14.80
2022-09-20T06:09:44.469Z,14.90
2022-09-20T06:12:37.276Z,14.95
2022-09-20T06:15:16.748Z,14.92
2022-09-20T06:17:51.138Z,14.94
2022-09-20T06:20:28.017Z,15.17
2022-09-20T06:22:56.601Z,15.23
2022-09-20T06:25:26.315Z,15.33
2022-09-20T06:27:55.919Z,15.37
2022-09-20T06:30:26.338Z,15.65
2022-09-20T06:32:57.813Z,15.69
2022-09-20T06:35:31.927Z,15.71
2022-09-20T06:38:15.791Z,15.94
2022-09-20T06:40:46.327Z,15.92
2022-09-20T06:43:14.498Z,16.07
2022-09-20T06:45:41.168Z,16.16
2022-09-20T06:48:07.809Z,16.27
2022-09-20T06:50:35.930Z,16.38
2022-09-20T06:53:02.679Z,16.46
2022-09-20T06:55:32.530Z,16.77
2022-09-20T06:57:59.160Z,17.01
2022-09-20T07:00:25.733Z,17.11
2022-09-20T07:02:52.320Z,17.17
2022-09-20T07:05:19.153Z,17.30
2022-09-20T07:07:47.253Z,17.40
2022-09-20T07:10:14.252Z,17.39
2022-09-20T07:12:41.239Z,18.15
2022-09-20T07:15:08.883Z,18.91
2022-09-20T07:17:35.464Z,19.36
2022-09-20T07:20:02.841Z,19.63
2022-09-20T07:22:29.513Z,19.45
2022-09-20T07:24:57.436Z,19.17
2022-09-20T07:27:26.429Z,19.11
2022-09-20T07:29:55.783Z,18.87
2022-09-20T07:32:22.347Z,19.10
2022-09-20T07:34:48.905Z,19.78
2022-09-20T07:37:17.205Z,20.65
2022-09-20T07:39:44.648Z,21.34
2022-09-20T07:42:12.510Z,21.61
2022-09-20T07:44:39.056Z,21.44
2022-09-20T07:47:05.610Z,21.18
2022-09-20T07:49:32.232Z,20.92
2022-09-20T07:51:58.978Z,20.05
2022-09-20T07:54:25.699Z,19.76
2022-09-20T07:56:52.216Z,19.45
2022-09-20T07:59:20.062Z,19.80
2022-09-20T08:01:46.772Z,20.19
2022-09-20T08:04:13.885Z,20.79
2022-09-20T08:06:42.524Z,21.25
2022-09-20T08:09:11.410Z,21.15
2022-09-20T08:11:39.110Z,19.99
2022-09-20T08:14:07.751Z,19.58
2022-09-20T08:16:40.399Z,19.90
2022-09-20T08:19:07.156Z,20.17
2022-09-20T08:21:35.399Z,20.14
2022-09-20T08:24:02.238Z,20.07
2022-09-20T08:26:29.651Z,20.14
2022-09-20T08:28:57.796Z,20.22
2022-09-20T08:31:26.274Z,20.09
2022-09-20T08:33:54.460Z,20.04
2022-09-20T08:36:22.770Z,20.31
2022-09-20T08:41:42.255Z,21.12
2022-09-20T08:44:15.290Z,21.43
2022-09-20T08:46:46.737Z,21.40
2022-09-20T08:49:19.134Z,21.24
2022-09-20T08:51:48.653Z,20.98
2022-09-20T08:54:15.371Z,19.38
2022-09-20T08:56:42.810Z,19.60
2022-09-20T08:59:15.048Z,20.09
2022-09-20T09:01:41.831Z,19.96
2022-09-20T09:04:14.865Z,19.32
2022-09-20T09:06:42.594Z,20.05
2022-09-20T09:09:39.025Z,20.16
2022-09-20T09:12:09.272Z,20.32
2022-09-20T09:14:54.593Z,20.05
2022-09-20T09:17:30.462Z,20.43
2022-09-20T09:20:41.261Z,20.47
2022-09-20T09:23:24.692Z,20.96
2022-09-20T09:26:01.313Z,21.16
2022-09-20T09:29:19.569Z,20.46
2022-09-20T09:31:52.809Z,20.14
2022-09-20T09:34:40.892Z,19.56
2022-09-20T09:37:28.742Z,19.51
2022-09-20T09:40:46.429Z,19.40
2022-09-20T09:43:36.190Z,18.90
2022-09-20T09:46:39.981Z,18.25
2022-09-20T09:49:29.571Z,18.70
2022-09-20T09:52:33.983Z,19.11
2022-09-20T09:55:32.328Z,19.53
2022-09-20T10:01:41.026Z,20.00
2022-09-20T10:04:43.568Z,20.17
2022-09-20T10:07:36.061Z,21.03
2022-09-20T10:10:46.157Z,20.97
2022-09-20T10:13:45.979Z,21.15
2022-09-20T10:16:56.135Z,21.18
2022-09-20T10:20:21.993Z,20.24
2022-09-20T10:23:51.494Z,19.71
2022-09-20T10:27:14.021Z,20.08
2022-09-20T10:30:35.605Z,20.07
2022-09-20T10:33:33.143Z,20.37
2022-09-20T10:36:42.046Z,20.31
2022-09-20T10:39:47.174Z,19.88
2022-09-20T10:42:40.400Z,19.22
2022-09-20T10:45:50.886Z,18.74
2022-09-20T10:48:35.832Z,18.71
2022-09-20T10:51:34.259Z,18.98
2022-09-20T10:54:42.876Z,18.80
2022-09-20T11:04:46.615Z,19.84
2022-09-20T11:07:58.590Z,19.56
2022-09-20T11:10:48.661Z,19.92
2022-09-20T11:13:34.163Z,19.41
2022-09-20T11:16:23.883Z,20.22
2022-09-20T11:22:36.611Z,20.13
2022-09-20T11:25:47.987Z,20.60
2022-09-20T11:28:33.788Z,20.61
2022-09-20T11:31:13.126Z,20.01
2022-09-20T11:34:06.895Z,19.44
2022-09-20T11:39:39.634Z,19.44
2022-09-20T11:46:27.712Z,18.74
2022-09-20T11:58:18.016Z,18.63
2022-09-20T12:00:48.304Z,18.98
2022-09-20T12:03:31.226Z,19.44
2022-09-20T12:06:00.411Z,19.80
2022-09-20T12:08:31.250Z,20.24
2022-09-20T12:11:01.949Z,20.55
2022-09-20T12:13:28.743Z,20.37
2022-09-20T12:16:02.827Z,20.06
2022-09-20T12:18:46.751Z,20.47
2022-09-20T12:21:16.475Z,20.82
2022-09-20T12:24:12.782Z,21.03
2022-09-20T12:26:42.658Z,21.08
2022-09-20T12:29:52.574Z,21.15
2022-09-20T12:32:45.902Z,21.00
2022-09-20T12:35:55.415Z,21.09
2022-09-20T12:38:36.838Z,21.15
2022-09-20T12:41:27.570Z,21.19
2022-09-20T12:43:59.762Z,21.55
2022-09-20T12:46:32.512Z,21.80
2022-09-20T12:49:25.519Z,21.93
2022-09-20T12:51:52.729Z,22.12
2022-09-20T12:54:27.062Z,22.27
2022-09-20T12:56:55.643Z,22.07
2022-09-20T12:59:26.147Z,22.10
2022-09-20T13:01:53.363Z,22.35
2022-09-20T13:04:53.377Z,22.12
2022-09-20T13:07:36.430Z,21.99
2022-09-20T13:10:22.819Z,21.48
2022-09-20T13:12:54.720Z,21.53
2022-09-20T13:15:24.916Z,21.33
2022-09-20T13:17:54.944Z,21.36
2022-09-20T13:20:24.330Z,21.60
2022-09-20T13:22:56.023Z,21.82
2022-09-20T13:25:30.601Z,22.04
2022-09-20T13:28:05.636Z,21.96
2022-09-20T13:30:32.442Z,21.91
2022-09-20T13:33:20.838Z,21.98
2022-09-20T13:35:50.852Z,21.90
2022-09-20T13:38:18.747Z,21.64
2022-09-20T13:40:50.532Z,20.94
2022-09-20T13:43:26.522Z,21.22
2022-09-20T13:45:55.927Z,21.25
2022-09-20T13:48:25.952Z,20.63
2022-09-20T13:50:59.904Z,20.19
2022-09-20T13:53:45.039Z,20.22
2022-09-20T13:56:20.567Z,20.82
2022-09-20T13:58:48.940Z,21.01
2022-09-20T14:01:27.237Z,21.07
2022-09-20T14:03:54.220Z,20.85
2022-09-20T14:06:25.094Z,21.13
2022-09-20T14:08:51.767Z,20.94
2022-09-20T14:11:23.242Z,20.86
2022-09-20T14:13:51.454Z,21.13
2022-09-20T14:16:20.128Z,21.41
2022-09-20T14:18:53.492Z,21.15
2022-09-20T14:21:23.515Z,20.69
2022-09-20T14:23:51.952Z,20.47
2022-09-20T14:26:26.684Z,20.86
2022-09-20T14:28:54.135Z,21.28
2022-09-20T14:31:26.302Z,20.71
2022-09-20T14:33:57.125Z,20.40
2022-09-20T14:36:29.173Z,19.88
2022-09-20T14:38:59.092Z,19.72
2022-09-20T14:41:36.502Z,19.46
2022-09-20T14:44:05.863Z,19.86
2022-09-20T14:52:09.848Z,19.65
2022-09-20T14:53:50.238Z,19.81
2022-09-20T14:56:52.635Z,19.23
2022-09-20T15:02:50.511Z,19.90
2022-09-20T15:05:45.791Z,19.83
2022-09-20T15:08:19.108Z,19.43
2022-09-20T15:10:51.007Z,19.30
2022-09-20T15:13:19.282Z,19.12
2022-09-20T15:15:49.682Z,18.81
2022-09-20T15:18:20.532Z,18.53
2022-09-20T15:20:51.340Z,18.46
2022-09-20T15:23:37.541Z,18.28
2022-09-20T15:26:04.659Z,18.14
2022-09-20T15:28:35.245Z,18.26
2022-09-20T15:31:02.294Z,18.92
2022-09-20T15:33:31.125Z,18.26
2022-09-20T15:35:58.073Z,18.54
2022-09-20T15:38:45.555Z,18.66
2022-09-20T15:44:05.033Z,18.23
2022-09-20T15:46:32.311Z,18.36
2022-09-20T15:49:09.122Z,18.39
2022-09-20T15:51:41.358Z,17.84
2022-09-20T15:54:26.370Z,17.97
2022-09-20T15:56:53.020Z,18.06
2022-09-20T15:59:22.206Z,18.06
2022-09-20T16:01:49.298Z,18.46
2022-09-20T16:04:17.420Z,18.45
2022-09-20T16:06:46.078Z,18.49
2022-09-20T16:09:13.344Z,18.02
2022-09-20T16:11:40.401Z,17.96
2022-09-20T16:14:07.889Z,17.73
2022-09-20T16:16:40.392Z,17.97
2022-09-20T16:19:07.604Z,17.91
2022-09-20T16:21:36.582Z,17.88
2022-09-20T16:24:06.335Z,17.92
2022-09-20T16:26:34.039Z,17.87
2022-09-20T16:29:01.213Z,17.95
2022-09-20T16:31:34.269Z,17.98
2022-09-20T16:34:03.927Z,17.87
2022-09-20T16:36:30.845Z,17.62
2022-09-20T16:38:58.141Z,17.40
2022-09-20T16:41:26.420Z,17.50
2022-09-20T16:43:53.675Z,17.48
2022-09-20T16:46:20.626Z,17.56
2022-09-20T16:48:51.377Z,17.34
2022-09-20T16:51:19.377Z,17.29
2022-09-20T16:53:46.568Z,17.61
2022-09-20T16:56:21.331Z,17.26
2022-09-20T16:58:49.827Z,17.46
2022-09-20T17:01:18.173Z,17.28
2022-09-20T17:03:45.777Z,17.11
2022-09-20T17:06:12.918Z,17.05
2022-09-20T17:08:41.849Z,16.93
2022-09-20T17:11:10.385Z,17.01
2022-09-20T17:13:37.810Z,17.02
2022-09-20T17:16:06.389Z,16.99
2022-09-20T17:18:33.057Z,16.92
2022-09-20T17:21:04.771Z,16.98
2022-09-20T17:23:32.258Z,17.00
2022-09-20T17:26:04.721Z,16.86
2022-09-20T17:28:34.988Z,16.74
2022-09-20T17:31:01.853Z,16.73
2022-09-20T17:33:28.842Z,16.36
2022-09-20T17:35:55.368Z,16.67
2022-09-20T17:38:21.917Z,16.56
2022-09-20T17:40:57.899Z,16.46
2022-09-20T17:43:26.303Z,16.46
2022-09-20T17:45:52.944Z,16.21
2022-09-20T17:48:19.557Z,16.30
2022-09-20T17:50:57.752Z,16.20
2022-09-20T17:53:26.505Z,16.21
2022-09-20T17:55:55.610Z,16.00
2022-09-20T17:58:29.057Z,15.89
2022-09-20T18:01:04.600Z,15.86
2022-09-20T18:03:37.812Z,15.76
2022-09-20T18:06:11.271Z,15.65
2022-09-20T18:08:37.996Z,15.62
2022-09-20T18:11:07.197Z,15.56
2022-09-20T18:13:59.597Z,15.35
2022-09-20T18:16:29.284Z,15.34
2022-09-20T18:18:56.224Z,15.31
2022-09-20T18:21:24.813Z,15.35
2022-09-20T18:23:52.000Z,15.16
2022-09-20T18:26:22.086Z,15.08
2022-09-20T18:28:53.617Z,15.11
2022-09-20T18:31:22.664Z,15.03
2022-09-20T18:33:54.640Z,14.74
2022-09-20T18:36:22.266Z,14.74
2022-09-20T18:38:48.906Z,14.74
2022-09-20T18:41:15.555Z,14.71
2022-09-20T18:43:44.742Z,14.66
2022-09-20T18:46:11.682Z,14.56
2022-09-20T18:48:38.292Z,14.73
2022-09-20T18:51:09.528Z,14.59
2022-09-20T18:53:37.506Z,14.38
2022-09-20T18:56:08.613Z,14.49
2022-09-20T18:58:38.837Z,14.44
2022-09-20T19:01:24.896Z,14.36
2022-09-20T19:04:03.075Z,14.40
2022-09-20T19:06:39.515Z,14.27
2022-09-20T19:09:13.088Z,14.35
2022-09-20T19:11:49.108Z,14.20
2022-09-20T19:14:22.072Z,14.34
2022-09-20T19:16:55.779Z,14.20
2022-09-20T19:19:31.411Z,14.11
2022-09-20T19:22:16.570Z,14.04
2022-09-20T19:25:10.432Z,14.14
2022-09-20T19:27:44.209Z,14.06
2022-09-20T19:30:14.074Z,13.96
2022-09-20T19:32:48.579Z,13.98
2022-09-20T19:35:19.582Z,13.94
2022-09-20T19:38:01.833Z,13.99
2022-09-20T19:40:39.279Z,14.06
2022-09-20T19:43:22.980Z,14.02
2022-09-20T19:45:59.735Z,14.11
2022-09-20T19:48:39.685Z,14.16
2022-09-20T19:51:10.787Z,14.24
2022-09-20T19:53:41.678Z,14.22
2022-09-20T19:56:23.987Z,14.29
2022-09-20T19:58:51.501Z,14.48
2022-09-20T20:01:21.717Z,14.52
2022-09-20T20:03:49.160Z,14.37
2022-09-20T20:06:26.730Z,14.46
2022-09-20T20:09:03.467Z,14.33
2022-09-20T20:11:42.444Z,14.32
2022-09-20T20:14:18.901Z,14.53
2022-09-20T20:16:57.646Z,14.62
2022-09-20T20:19:41.608Z,14.67
2022-09-20T20:22:25.345Z,14.48
2022-09-20T20:24:54.248Z,14.41
2022-09-20T20:27:21.195Z,14.49
2022-09-20T20:29:50.253Z,14.43
2022-09-20T20:32:17.188Z,14.48
2022-09-20T20:34:43.794Z,14.50
2022-09-20T20:37:10.341Z,14.42
2022-09-20T20:39:39.646Z,14.27
2022-09-20T20:42:13.513Z,14.25
2022-09-20T20:44:41.998Z,14.18
2022-09-20T20:47:08.567Z,14.22
2022-09-20T20:49:43.630Z,14.11
2022-09-20T20:52:10.293Z,14.05
2022-09-20T20:54:44.072Z,14.12
2022-09-20T20:57:15.301Z,14.17
2022-09-20T21:00:00.567Z,14.14
2022-09-20T21:02:32.522Z,14.24
2022-09-20T21:18:50.026Z,14.06
2022-09-20T21:21:53.906Z,13.96
2022-09-20T21:24:53.362Z,13.94
2022-09-20T21:30:23.095Z,13.76
2022-09-20T21:32:56.067Z,13.67
2022-09-20T21:35:29.056Z,13.64
2022-09-20T21:37:57.262Z,13.49
2022-09-20T21:40:34.965Z,13.51
2022-09-20T21:43:03.199Z,13.39
2022-09-20T21:45:34.062Z,13.39
2022-09-20T21:48:07.419Z,13.38
2022-09-20T21:50:41.342Z,13.24
2022-09-20T21:56:27.298Z,13.09
2022-09-20T22:02:01.687Z,13.10
2022-09-20T22:04:31.781Z,13.11
2022-09-20T22:07:00.184Z,13.05
2022-09-20T22:09:32.799Z,13.11
2022-09-20T22:12:08.054Z,12.99
2022-09-20T22:14:45.525Z,12.90
2022-09-20T22:17:34.246Z,12.98
2022-09-20T22:20:19.221Z,12.75
2022-09-20T22:22:57.916Z,12.75
2022-09-20T22:25:37.060Z,12.82
2022-09-20T22:28:10.771Z,12.89
2022-09-20T22:30:46.232Z,12.75
2022-09-20T22:33:56.817Z,12.71
2022-09-20T22:36:32.270Z,12.64
2022-09-20T22:39:01.793Z,12.59
2022-09-20T22:41:30.397Z,12.53
2022-09-20T22:43:57.350Z,12.55
2022-09-20T22:46:26.211Z,12.52
2022-09-20T22:48:53.496Z,12.45
2022-09-20T22:51:23.577Z,12.34
2022-09-20T22:53:55.701Z,12.44
2022-09-20T22:56:40.996Z,12.24
2022-09-20T22:59:10.738Z,12.25
2022-09-20T23:01:45.928Z,12.30
2022-09-20T23:04:16.396Z,12.22
2022-09-20T23:06:53.159Z,12.23
2022-09-20T23:09:54.989Z,12.26
2022-09-20T23:12:44.488Z,12.20
2022-09-20T23:15:14.373Z,12.26
2022-09-20T23:17:49.729Z,12.14
2022-09-20T23:20:19.687Z,12.08
2022-09-20T23:22:46.736Z,12.14
2022-09-20T23:25:28.015Z,12.15
2022-09-20T23:28:04.785Z,12.09
2022-09-20T23:30:36.248Z,12.04
2022-09-20T23:33:23.817Z,12.23
2022-09-20T23:35:58.454Z,12.23
2022-09-20T23:38:29.313Z,12.07
2022-09-20T23:41:04.364Z,12.21
2022-09-20T23:43:42.268Z,12.02
2022-09-20T23:46:10.727Z,12.02
2022-09-20T23:48:38.650Z,11.95
2022-09-20T23:51:09.869Z,11.92
2022-09-20T23:53:54.214Z,11.71
2022-09-20T23:56:24.058Z,11.68
2022-09-20T23:59:20.102Z,11.88
